Time;durP1;ratioP1;P1;durP2;ratioP2;P2;SDS_P1;SDS_P2;PMS_P1;PMS_P2;Temp;Humidity;BMP_temperature;BMP_pressure;BME280_temperature;BME280_humidity;BME280_pressure;Samples;Min_cycle;Max_cycle;Signal;HPM_P1;HPM_P2
2021/03/21 00:01:14;;;;;;;;;;;;;;;21.87;24.35;98049.50;5059628;28;635;-73
2021/03/21 00:03:39;;;;;;;;;;;;;;;21.66;24.59;98040.31;5059544;28;646;-73
2021/03/21 00:06:11;;;;;;;;;;;;;;;21.72;24.51;98044.19;5059556;28;717;-73
2021/03/21 00:08:36;;;;;;;;;;;;;;;21.73;25.03;98039.34;5057921;28;1973;-73
2021/03/21 00:11:08;;;;;;;;;;;;;;;21.58;25.05;98036.06;5059359;28;972;-73
2021/03/21 00:13:33;;;;;;;;;;;;;;;22.09;24.28;98033.50;5059448;28;638;-73
2021/03/21 00:16:07;;;;;;;;;;;;;;;22.41;23.74;98043.13;5059463;28;835;-73
2021/03/21 00:18:34;;;;;;;;;;;;;;;22.63;23.55;98041.25;5059445;28;615;-73
2021/03/21 00:21:06;;;;;;;;;;;;;;;22.04;23.99;98036.88;5059378;28;665;-73
2021/03/21 00:23:39;;;;;;;;;;;;;;;21.72;24.59;98038.53;5059105;28;922;-73
2021/03/21 00:26:04;;;;;;;;;;;;;;;21.61;24.94;98020.25;5059100;28;935;-73
2021/03/21 00:28:37;;;;;;;;;;;;;;;22.05;24.26;98029.94;5059252;28;1980;-73
2021/03/21 00:31:02;;;;;;;;;;;;;;;22.31;23.74;98028.81;5059507;28;630;-73
2021/03/21 00:33:35;;;;;;;;;;;;;;;22.65;23.18;98035.16;5059656;28;598;-73
2021/03/21 00:36:01;;;;;;;;;;;;;;;22.16;23.79;98021.97;5059669;28;698;-73
2021/03/21 00:38:33;;;;;;;;;;;;;;;21.28;24.86;98021.00;5058965;28;990;-73
2021/03/21 00:41:05;;;;;;;;;;;;;;;21.62;24.82;98016.97;5041817;28;1242;-73
2021/03/21 00:43:31;;;;;;;;;;;;;;;21.95;24.33;98020.50;5059193;28;627;-73
2021/03/21 00:46:03;;;;;;;;;;;;;;;22.35;24.04;98006.84;5059584;28;598;-73
2021/03/21 00:48:29;;;;;;;;;;;;;;;22.53;23.58;98028.19;5059084;28;1898;-73
2021/03/21 00:51:02;;;;;;;;;;;;;;;21.93;24.11;98022.22;5042078;28;1135;-73
2021/03/21 00:53:27;;;;;;;;;;;;;;;21.78;24.14;98031.09;5044841;28;1005;-73
2021/03/21 00:55:59;;;;;;;;;;;;;;;21.71;24.24;98036.94;5062570;28;832;-74
2021/03/21 00:58:24;;;;;;;;;;;;;;;21.89;24.54;98030.78;5062644;28;946;-73
2021/03/21 01:00:56;;;;;;;;;;;;;;;22.28;23.86;98024.06;5062672;28;735;-73
2021/03/21 01:03:22;;;;;;;;;;;;;;;22.59;23.32;98037.75;5062641;28;729;-73
2021/03/21 01:05:56;;;;;;;;;;;;;;;22.35;23.52;98029.53;5062615;28;656;-73
2021/03/21 01:08:28;;;;;;;;;;;;;;;21.89;24.23;98030.00;5062268;28;1988;-73
2021/03/21 01:10:57;;;;;;;;;;;;;;;21.70;24.46;98029.69;5062216;28;881;-74
2021/03/21 01:13:23;;;;;;;;;;;;;;;21.47;25.27;98021.41;5062355;28;889;-73
2021/03/21 01:15:48;;;;;;;;;;;;;;;22.24;24.06;98040.38;5062640;28;751;-73
2021/03/21 01:18:24;;;;;;;;;;;;;;;22.50;23.54;98040.44;5062640;28;844;-73
2021/03/21 01:20:50;;;;;;;;;;;;;;;22.44;23.73;98043.03;5062337;28;644;-73
2021/03/21 01:23:15;;;;;;;;;;;;;;;21.79;24.35;98026.22;5062329;28;902;-73
2021/03/21 01:25:41;;;;;;;;;;;;;;;21.79;24.35;98038.34;5062158;28;817;-73
2021/03/21 01:28:18;;;;;;;;;;;;;;;21.73;24.71;98033.66;5062499;28;1987;-73
2021/03/21 01:30:44;;;;;;;;;;;;;;;21.94;24.39;98021.75;5062165;28;647;-73
2021/03/21 01:33:09;;;;;;;;;;;;;;;22.27;23.92;98016.78;5062523;28;666;-73
2021/03/21 01:35:34;;;;;;;;;;;;;;;22.59;23.44;98003.72;5062077;28;603;-73
2021/03/21 01:38:00;;;;;;;;;;;;;;;22.49;23.32;97999.16;5061661;28;869;-73
2021/03/21 01:40:25;;;;;;;;;;;;;;;22.02;24.10;97983.50;5061707;28;939;-73
2021/03/21 01:42:51;;;;;;;;;;;;;;;21.77;24.40;97984.19;5061967;28;863;-73
2021/03/21 01:45:31;;;;;;;;;;;;;;;21.97;24.32;97974.75;5044862;28;629;-73
2021/03/21 01:47:57;;;;;;;;;;;;;;;22.56;23.70;97973.41;5062161;28;1906;-73
2021/03/21 01:50:26;;;;;;;;;;;;;;;22.57;23.51;97975.00;5044842;28;634;-73
2021/03/21 01:52:51;;;;;;;;;;;;;;;22.48;23.37;97981.34;5061437;28;988;-73
2021/03/21 01:55:17;;;;;;;;;;;;;;;21.71;24.52;97979.50;5061344;28;987;-73
2021/03/21 01:57:42;;;;;;;;;;;;;;;21.98;24.01;97982.00;5044609;28;1076;-73
2021/03/21 02:00:08;;;;;;;;;;;;;;;21.80;24.29;97983.28;5061696;28;693;-73
2021/03/21 02:02:35;;;;;;;;;;;;;;;22.04;24.29;97985.88;5060999;28;594;-73
2021/03/21 02:05:01;;;;;;;;;;;;;;;22.42;23.81;97993.69;5060824;28;699;-73
2021/03/21 02:07:26;;;;;;;;;;;;;;;22.60;23.69;97999.63;5061414;28;1898;-73
2021/03/21 02:09:57;;;;;;;;;;;;;;;22.35;23.72;98006.06;5061233;28;1044;-73
2021/03/21 02:12:35;;;;;;;;;;;;;;;21.85;24.29;97988.41;5043579;28;951;-73
2021/03/21 02:15:19;;;;;;;;;;;;;;;21.88;24.46;98005.75;5061283;28;661;-73
2021/03/21 02:17:49;;;;;;;;;;;;;;;21.85;24.60;97973.44;5044103;28;586;-73
2021/03/21 02:20:17;;;;;;;;;;;;;;;22.26;23.76;97986.84;5061432;28;709;-73
2021/03/21 02:22:50;;;;;;;;;;;;;;;22.48;23.43;97970.00;5061111;28;840;-73
2021/03/21 02:25:22;;;;;;;;;;;;;;;22.31;23.55;97966.47;5043432;28;1335;-73
2021/03/21 02:28:00;;;;;;;;;;;;;;;21.22;25.36;97954.09;5060985;28;1971;-73
2021/03/21 02:30:45;;;;;;;;;;;;;;;21.64;24.37;97972.00;5060992;28;661;-73
2021/03/21 02:33:19;;;;;;;;;;;;;;;21.73;24.75;97983.47;5043860;28;685;-73
2021/03/21 02:35:49;;;;;;;;;;;;;;;22.23;24.09;97990.59;5061101;28;567;-73
2021/03/21 02:38:33;;;;;;;;;;;;;;;22.41;23.56;97966.59;5043511;28;834;-73
2021/03/21 02:40:59;;;;;;;;;;;;;;;22.28;23.62;97981.56;5060513;28;885;-73
2021/03/21 02:43:32;;;;;;;;;;;;;;;21.59;24.56;97967.66;5060806;28;841;-73
2021/03/21 02:45:58;;;;;;;;;;;;;;;21.70;24.59;97983.56;5060858;28;646;-73
2021/03/21 02:48:27;;;;;;;;;;;;;;;21.73;24.63;97994.81;5043376;28;1969;-73
2021/03/21 02:50:54;;;;;;;;;;;;;;;21.79;24.38;97972.41;5060574;28;653;-74
2021/03/21 02:53:28;;;;;;;;;;;;;;;21.66;24.55;97997.03;5043290;28;972;-73
2021/03/21 02:55:54;;;;;;;;;;;;;;;21.69;24.75;97988.44;5060200;28;929;-73
2021/03/21 02:58:39;;;;;;;;;;;;;;;22.31;23.68;97994.00;5043510;28;637;-74
2021/03/21 03:01:17;;;;;;;;;;;;;;;22.54;23.60;97975.94;5060442;28;652;-73
2021/03/21 03:03:46;;;;;;;;;;;;;;;22.56;23.23;97970.59;5043156;28;1307;-73
2021/03/21 03:06:12;;;;;;;;;;;;;;;22.09;24.04;97996.66;5042645;28;931;-73
2021/03/21 03:08:39;;;;;;;;;;;;;;;21.35;24.64;97968.31;5042534;28;1898;-73
2021/03/21 03:11:08;;;;;;;;;;;;;;;21.46;24.72;97997.16;5042221;28;880;-73
2021/03/21 03:13:34;;;;;;;;;;;;;;;21.67;24.79;97976.00;5060130;28;670;-73
2021/03/21 03:16:01;;;;;;;;;;;;;;;21.78;24.75;97980.09;5042096;28;882;-73
2021/03/21 03:18:30;;;;;;;;;;;;;;;22.40;23.54;97982.81;5060384;28;610;-73
2021/03/21 03:21:00;;;;;;;;;;;;;;;22.64;23.43;98006.00;5042881;28;626;-73
2021/03/21 03:23:49;;;;;;;;;;;;;;;22.51;23.31;97996.66;5042803;28;968;-73
2021/03/21 03:26:39;;;;;;;;;;;;;;;21.88;24.07;98036.91;5049164;28;1293;-73
2021/03/21 03:29:13;;;;;;;;;;;;;;;21.78;24.33;97991.44;5060173;28;1984;-73
2021/03/21 03:31:40;;;;;;;;;;;;;;;21.89;24.45;98027.16;5059939;28;594;-73
2021/03/21 03:34:05;;;;;;;;;;;;;;;22.23;24.10;97976.44;5043044;28;671;-73
2021/03/21 03:36:32;;;;;;;;;;;;;;;22.44;23.54;97997.69;5059920;28;622;-73
2021/03/21 03:38:57;;;;;;;;;;;;;;;22.53;23.59;97962.97;5042916;28;888;-73
2021/03/21 03:41:23;;;;;;;;;;;;;;;22.19;23.65;97964.41;5059772;28;857;-73
2021/03/21 03:44:07;;;;;;;;;;;;;;;21.75;24.07;97989.47;5059935;28;1088;-73
2021/03/21 03:46:41;;;;;;;;;;;;;;;21.67;24.53;97968.28;5060132;28;659;-73
2021/03/21 03:49:13;;;;;;;;;;;;;;;22.04;24.12;97968.88;5059770;28;1898;-73
2021/03/21 03:51:59;;;;;;;;;;;;;;;22.43;23.67;97989.59;5026598;28;1311;-73
2021/03/21 03:54:28;;;;;;;;;;;;;;;22.36;23.52;97974.41;5018845;28;1029;-73
2021/03/21 03:56:54;;;;;;;;;;;;;;;21.50;24.86;98004.34;5041780;28;920;-73
2021/03/21 03:59:26;;;;;;;;;;;;;;;21.29;24.84;97970.88;5059726;28;607;-73
2021/03/21 04:01:55;;;;;;;;;;;;;;;21.67;24.81;97988.09;5042942;28;664;-73
2021/03/21 04:04:24;;;;;;;;;;;;;;;22.51;23.58;97988.16;5042760;28;689;-73
2021/03/21 04:06:52;;;;;;;;;;;;;;;22.58;23.52;97985.09;5059830;28;658;-73
2021/03/21 04:09:20;;;;;;;;;;;;;;;22.73;23.36;97989.06;5059030;28;1984;-73
2021/03/21 04:11:57;;;;;;;;;;;;;;;21.73;24.62;97982.69;5059478;28;923;-73
2021/03/21 04:14:24;;;;;;;;;;;;;;;21.84;24.33;97992.47;5042681;28;766;-73
2021/03/21 04:16:55;;;;;;;;;;;;;;;21.88;24.15;97983.09;5042499;28;630;-73
2021/03/21 04:19:21;;;;;;;;;;;;;;;22.23;24.08;98007.63;5042265;28;693;-73
2021/03/21 04:21:54;;;;;;;;;;;;;;;22.55;23.67;97974.66;5042425;28;673;-73
2021/03/21 04:24:21;;;;;;;;;;;;;;;22.62;23.46;98008.47;5042162;28;848;-73
2021/03/21 04:27:01;;;;;;;;;;;;;;;22.13;23.73;97990.91;5043414;28;928;-73
2021/03/21 04:29:27;;;;;;;;;;;;;;;21.76;24.27;97996.75;5045896;28;1910;-73
2021/03/21 04:31:54;;;;;;;;;;;;;;;21.76;24.23;98005.25;5063316;28;779;-73
2021/03/21 04:34:20;;;;;;;;;;;;;;;21.77;24.81;98001.19;5046095;28;615;-73
2021/03/21 04:36:45;;;;;;;;;;;;;;;22.14;24.27;98001.81;5045840;28;731;-73
2021/03/21 04:39:12;;;;;;;;;;;;;;;22.53;23.77;98005.50;5063110;28;837;-73
2021/03/21 04:41:45;;;;;;;;;;;;;;;22.42;23.50;97993.69;5045754;28;813;-73
2021/03/21 04:44:17;;;;;;;;;;;;;;;22.23;24.00;97987.78;5063055;28;1012;-73
2021/03/21 04:46:44;;;;;;;;;;;;;;;21.68;24.56;97975.53;5063039;28;680;-73
2021/03/21 04:49:10;;;;;;;;;;;;;;;21.61;24.69;97964.41;5062997;28;1999;-73
2021/03/21 04:51:45;;;;;;;;;;;;;;;22.15;24.20;97968.59;5062873;28;693;-73
2021/03/21 04:54:21;;;;;;;;;;;;;;;22.54;23.66;97978.75;5062982;28;886;-73
2021/03/21 04:56:52;;;;;;;;;;;;;;;22.52;23.60;97975.56;5045628;28;853;-74
2021/03/21 04:59:22;;;;;;;;;;;;;;;21.83;24.15;97965.41;5063072;28;640;-74
2021/03/21 05:01:53;;;;;;;;;;;;;;;21.77;24.40;97972.06;5062995;28;679;-74
2021/03/21 05:04:20;;;;;;;;;;;;;;;21.74;24.63;97973.75;5062831;28;661;-73
2021/03/21 05:06:48;;;;;;;;;;;;;;;22.11;24.12;97985.69;5045700;28;670;-74
2021/03/21 05:09:15;;;;;;;;;;;;;;;22.45;23.83;97981.47;5044947;28;1913;-75
2021/03/21 05:11:45;;;;;;;;;;;;;;;22.49;23.73;97960.25;5062542;28;877;-75
2021/03/21 05:14:34;;;;;;;;;;;;;;;22.48;23.56;97986.22;5045721;28;941;-74
2021/03/21 05:17:01;;;;;;;;;;;;;;;21.88;24.18;97954.78;5045410;28;702;-74
2021/03/21 05:19:31;;;;;;;;;;;;;;;21.78;24.35;97982.94;5062499;28;653;-74
2021/03/21 05:21:57;;;;;;;;;;;;;;;21.75;24.67;97972.50;5044523;28;743;-74
2021/03/21 05:24:26;;;;;;;;;;;;;;;21.74;24.84;97990.72;5062618;28;646;-74
2021/03/21 05:26:52;;;;;;;;;;;;;;;22.19;24.17;97970.06;5044118;28;1060;-74
2021/03/21 05:29:20;;;;;;;;;;;;;;;22.63;23.31;97981.69;5061804;28;1910;-74
2021/03/21 05:31:46;;;;;;;;;;;;;;;22.65;23.08;97979.22;5062380;28;814;-74
2021/03/21 05:34:11;;;;;;;;;;;;;;;22.03;24.01;97975.78;5044460;28;862;-75
2021/03/21 05:36:40;;;;;;;;;;;;;;;21.57;24.70;97986.34;5045230;28;638;-74
2021/03/21 05:39:12;;;;;;;;;;;;;;;21.66;24.48;97983.69;5061848;28;802;-74
2021/03/21 05:41:52;;;;;;;;;;;;;;;22.02;24.17;97977.00;5044749;28;857;-74
2021/03/21 05:44:36;;;;;;;;;;;;;;;22.29;24.00;97996.50;5044367;28;893;-74
2021/03/21 05:47:20;;;;;;;;;;;;;;;22.44;23.67;97988.38;5061978;28;718;-74
2021/03/21 05:49:57;;;;;;;;;;;;;;;21.95;24.26;97999.88;5061943;28;726;-73
2021/03/21 05:52:45;;;;;;;;;;;;;;;21.67;24.55;97990.94;5061773;28;670;-74
2021/03/21 05:55:14;;;;;;;;;;;;;;;21.62;24.62;98002.00;5044500;28;631;-74
2021/03/21 05:57:45;;;;;;;;;;;;;;;21.81;24.36;98013.22;5061629;28;870;-74
2021/03/21 06:00:15;;;;;;;;;;;;;;;21.60;24.63;98008.09;5061344;28;922;-74
2021/03/21 06:02:48;;;;;;;;;;;;;;;21.47;24.83;98001.59;5044738;28;673;-74
2021/03/21 06:05:39;;;;;;;;;;;;;;;21.63;24.76;97998.72;5044410;28;721;-74
2021/03/21 06:08:23;;;;;;;;;;;;;;;22.31;23.97;97994.00;5057245;28;1960;-73
2021/03/21 06:10:53;;;;;;;;;;;;;;;22.47;23.39;98001.63;5061401;28;909;-74
2021/03/21 06:13:18;;;;;;;;;;;;;;;22.54;23.44;97990.09;5043733;28;869;-74
2021/03/21 06:15:55;;;;;;;;;;;;;;;22.62;23.46;97985.78;5061811;28;681;-74
2021/03/21 06:18:27;;;;;;;;;;;;;;;21.93;23.78;97986.19;5043978;28;610;-74
2021/03/21 06:20:55;;;;;;;;;;;;;;;21.78;24.03;97997.09;5061446;28;627;-74
2021/03/21 06:23:27;;;;;;;;;;;;;;;21.49;24.80;97996.25;5061353;28;651;-74
2021/03/21 06:25:53;;;;;;;;;;;;;;;22.01;24.21;98012.25;5061182;28;936;-74
2021/03/21 06:28:37;;;;;;;;;;;;;;;22.40;23.44;98016.84;5060776;28;1977;-73
2021/03/21 06:31:11;;;;;;;;;;;;;;;22.65;22.97;98001.91;5061277;28;634;-74
2021/03/21 06:33:37;;;;;;;;;;;;;;;21.82;24.20;98009.13;5061180;28;686;-74
2021/03/21 06:36:18;;;;;;;;;;;;;;;21.70;24.29;98018.34;5061377;28;615;-73
2021/03/21 06:38:48;;;;;;;;;;;;;;;21.93;24.03;98008.84;5060714;28;1015;-74
2021/03/21 06:41:22;;;;;;;;;;;;;;;22.24;23.76;98017.69;5061044;28;982;-74
2021/03/21 06:44:03;;;;;;;;;;;;;;;22.46;23.33;98000.06;5061240;28;650;-74
2021/03/21 06:46:29;;;;;;;;;;;;;;;22.56;23.41;97998.94;5061199;28;646;-74
2021/03/21 06:49:03;;;;;;;;;;;;;;;22.17;23.71;98000.88;5060133;28;1961;-73
2021/03/21 06:51:29;;;;;;;;;;;;;;;21.88;24.01;98000.09;5060734;28;694;-74
2021/03/21 06:54:12;;;;;;;;;;;;;;;21.30;24.84;97995.94;5061041;28;710;-74
2021/03/21 06:56:53;;;;;;;;;;;;;;;21.98;24.09;97994.13;5043126;28;962;-74
2021/03/21 06:59:34;;;;;;;;;;;;;;;22.47;23.32;98012.97;5060109;28;996;-74
2021/03/21 07:02:02;;;;;;;;;;;;;;;22.66;23.29;97997.03;5043591;28;1189;-75
2021/03/21 07:05:03;;;;;;;;;;;;;;;22.02;23.59;97989.16;5060561;28;670;-74
2021/03/21 07:07:40;;;;;;;;;;;;;;;22.00;23.66;97979.50;5060575;28;1969;-74
2021/03/21 07:10:18;;;;;;;;;;;;;;;21.78;24.31;97980.09;5060335;28;1064;-74
2021/03/21 07:12:59;;;;;;;;;;;;;;;21.78;24.40;97973.66;5060170;28;1029;-74
2021/03/21 07:15:37;;;;;;;;;;;;;;;22.31;23.64;97972.13;5060096;28;918;-74
2021/03/21 07:18:22;;;;;;;;;;;;;;;22.35;23.63;97967.16;5060235;28;658;-74
2021/03/21 07:20:50;;;;;;;;;;;;;;;22.19;23.68;97970.06;5060465;28;626;-74
2021/03/21 07:23:22;;;;;;;;;;;;;;;21.30;25.04;97966.84;5060109;28;695;-74
2021/03/21 07:25:51;;;;;;;;;;;;;;;21.31;25.22;97963.56;5059862;28;858;-74
2021/03/21 07:28:35;;;;;;;;;;;;;;;21.72;24.51;97958.44;5059715;28;1993;-74
2021/03/21 07:31:13;;;;;;;;;;;;;;;21.75;24.45;97966.03;5060452;28;611;-74
2021/03/21 07:33:44;;;;;;;;;;;;;;;21.67;24.31;97971.13;5042935;28;583;-74
2021/03/21 07:36:28;;;;;;;;;;;;;;;21.71;24.42;97971.81;5060253;28;745;-74
2021/03/21 07:39:00;;;;;;;;;;;;;;;22.05;24.05;97964.78;5060095;28;678;-74
2021/03/21 07:41:36;;;;;;;;;;;;;;;22.35;23.58;97966.38;5060074;28;893;-74
2021/03/21 07:44:05;;;;;;;;;;;;;;;22.53;23.21;97977.16;5025790;28;971;-74
2021/03/21 07:46:42;;;;;;;;;;;;;;;21.96;23.99;97967.47;5059919;28;658;-73
2021/03/21 07:49:26;;;;;;;;;;;;;;;21.73;24.38;97966.50;5042626;28;1905;-73
2021/03/21 07:52:10;;;;;;;;;;;;;;;21.66;24.34;97968.72;5059940;28;749;-74
2021/03/21 07:54:44;;;;;;;;;;;;;;;22.20;23.70;97966.00;5060005;28;661;-74
2021/03/21 07:57:13;;;;;;;;;;;;;;;22.43;23.67;97970.56;5042255;28;887;-74
2021/03/21 07:59:38;;;;;;;;;;;;;;;22.51;23.13;97973.97;5042205;28;886;-74
2021/03/21 08:02:04;;;;;;;;;;;;;;;21.83;24.28;97971.06;5045940;28;710;-74
2021/03/21 08:04:50;;;;;;;;;;;;;;;21.75;24.10;97966.81;5046752;28;623;-74
2021/03/21 08:07:35;;;;;;;;;;;;;;;21.79;24.28;97964.69;5063315;28;1636;-74
2021/03/21 08:10:00;;;;;;;;;;;;;;;22.07;24.05;97962.28;5063576;28;1170;-73
2021/03/21 08:12:36;;;;;;;;;;;;;;;22.33;23.46;97964.00;5046491;28;690;-74
2021/03/21 08:15:08;;;;;;;;;;;;;;;22.54;23.50;97953.25;5063709;28;694;-74
2021/03/21 08:17:46;;;;;;;;;;;;;;;22.23;23.62;97935.97;5063639;28;867;-75
2021/03/21 08:20:17;;;;;;;;;;;;;;;21.87;24.08;97924.88;5063238;28;875;-74
2021/03/21 08:22:43;;;;;;;;;;;;;;;21.60;24.48;97926.00;5046282;28;1254;-74
2021/03/21 08:25:14;;;;;;;;;;;;;;;21.52;24.78;97933.91;5046226;28;650;-74
2021/03/21 08:27:39;;;;;;;;;;;;;;;22.27;23.81;97942.28;5063275;28;1910;-74
2021/03/21 08:30:09;;;;;;;;;;;;;;;22.51;23.45;97959.81;5063522;28;627;-74
2021/03/21 08:32:34;;;;;;;;;;;;;;;22.42;23.29;97973.84;5063325;28;765;-74
2021/03/21 08:35:14;;;;;;;;;;;;;;;21.65;24.32;97956.59;5063240;28;666;-73
2021/03/21 08:37:45;;;;;;;;;;;;;;;21.81;24.19;97965.06;5045800;28;977;-73
2021/03/21 08:40:13;;;;;;;;;;;;;;;21.69;24.63;97960.13;5045928;28;923;-74
2021/03/21 08:42:39;;;;;;;;;;;;;;;22.04;24.10;97966.81;5063472;28;614;-74
2021/03/21 08:45:27;;;;;;;;;;;;;;;22.35;23.52;97966.38;5063095;28;606;-73
2021/03/21 08:47:56;;;;;;;;;;;;;;;22.54;23.21;97973.09;5033446;28;1902;-74
2021/03/21 08:50:36;;;;;;;;;;;;;;;22.32;23.53;97972.91;5062911;28;1059;-75
2021/03/21 08:53:01;;;;;;;;;;;;;;;21.79;24.03;97963.91;5061544;28;1115;-74
2021/03/21 08:55:35;;;;;;;;;;;;;;;21.76;24.44;97965.59;5062202;28;1161;-73
2021/03/21 08:58:26;;;;;;;;;;;;;;;21.91;24.53;97956.69;5045512;28;1185;-73
2021/03/21 09:00:57;;;;;;;;;;;;;;;22.32;23.80;97951.03;5059182;28;2091;-74
2021/03/21 09:03:22;;;;;;;;;;;;;;;22.47;23.61;97940.06;5062742;28;678;-73
2021/03/21 09:05:52;;;;;;;;;;;;;;;22.11;23.99;97934.69;5063017;28;670;-74
2021/03/21 09:08:17;;;;;;;;;;;;;;;21.97;23.98;97935.09;5062326;28;1898;-74
2021/03/21 09:10:50;;;;;;;;;;;;;;;21.66;24.37;97929.06;5045549;28;1266;-74
2021/03/21 09:13:23;;;;;;;;;;;;;;;21.72;24.63;97930.94;5061913;28;638;-75
2021/03/21 09:15:55;;;;;;;;;;;;;;;22.08;23.87;97932.72;5062649;28;641;-74
2021/03/21 09:18:20;;;;;;;;;;;;;;;22.41;23.44;97932.56;5062485;28;626;-74
2021/03/21 09:20:52;;;;;;;;;;;;;;;22.44;23.49;97928.84;5062585;28;694;-74
2021/03/21 09:23:37;;;;;;;;;;;;;;;21.89;24.11;97933.69;5062167;28;890;-74
2021/03/21 09:26:04;;;;;;;;;;;;;;;21.72;24.42;97930.94;5062163;28;818;-74
2021/03/21 09:28:34;;;;;;;;;;;;;;;21.77;24.48;97933.22;5062216;28;1967;-74
2021/03/21 09:31:00;;;;;;;;;;;;;;;22.41;23.44;97929.75;5045539;28;667;-74
2021/03/21 09:33:27;;;;;;;;;;;;;;;22.54;23.53;97927.72;5045201;28;666;-74
2021/03/21 09:35:58;;;;;;;;;;;;;;;22.47;23.22;97919.41;5045382;28;667;-74
2021/03/21 09:38:31;;;;;;;;;;;;;;;21.96;23.88;97922.16;5061875;28;1083;-74
2021/03/21 09:40:57;;;;;;;;;;;;;;;21.42;24.86;97925.69;5044894;28;877;-74
2021/03/21 09:43:35;;;;;;;;;;;;;;;21.75;24.55;97924.34;5061954;28;850;-74
2021/03/21 09:46:06;;;;;;;;;;;;;;;21.63;24.83;97922.28;5062287;28;654;-74
2021/03/21 09:48:44;;;;;;;;;;;;;;;22.35;23.60;97921.78;5061898;28;1973;-73
2021/03/21 09:51:14;;;;;;;;;;;;;;;22.59;23.31;97925.09;5062413;28;710;-74
2021/03/21 09:53:42;;;;;;;;;;;;;;;22.56;23.21;97913.88;5044114;28;838;-75
2021/03/21 09:56:09;;;;;;;;;;;;;;;22.18;23.91;97923.16;5044603;28;1228;-74
2021/03/21 09:58:47;;;;;;;;;;;;;;;21.89;24.12;97923.16;5062314;28;709;-75
2021/03/21 10:01:16;;;;;;;;;;;;;;;21.75;24.61;97921.50;5044675;28;709;-74
2021/03/21 10:03:41;;;;;;;;;;;;;;;22.15;24.00;97915.53;5044632;28;1140;-74
2021/03/21 10:06:10;;;;;;;;;;;;;;;22.48;23.37;97921.78;5044566;28;714;-74
2021/03/21 10:08:41;;;;;;;;;;;;;;;22.44;23.34;97912.63;5061251;28;1967;-74
2021/03/21 10:11:07;;;;;;;;;;;;;;;21.72;24.55;97916.75;5061239;28;927;-74
2021/03/21 10:13:32;;;;;;;;;;;;;;;21.36;24.88;97919.00;5061606;28;932;-74
2021/03/21 10:16:27;;;;;;;;;;;;;;;21.59;24.88;97910.25;5062024;28;630;-74
2021/03/21 10:18:55;;;;;;;;;;;;;;;22.08;24.12;97912.91;5044153;28;957;-75
2021/03/21 10:21:24;;;;;;;;;;;;;;;22.40;23.59;97919.66;5061691;28;650;-74
2021/03/21 10:23:57;;;;;;;;;;;;;;;22.48;23.27;97912.50;5060298;28;846;-74
2021/03/21 10:26:30;;;;;;;;;;;;;;;21.71;24.22;97920.84;5060759;28;915;-74
2021/03/21 10:28:59;;;;;;;;;;;;;;;21.73;24.26;97914.72;5027431;28;1973;-75
2021/03/21 10:31:25;;;;;;;;;;;;;;;21.64;24.55;97911.75;5061457;28;630;-74
2021/03/21 10:33:53;;;;;;;;;;;;;;;21.58;24.63;97915.13;5061365;28;758;-74
2021/03/21 10:36:37;;;;;;;;;;;;;;;21.71;24.84;97901.03;5011264;28;1293;-74
2021/03/21 10:39:03;;;;;;;;;;;;;;;21.60;24.94;97903.34;5060802;28;962;-74
2021/03/21 10:41:47;;;;;;;;;;;;;;;21.61;24.75;97898.50;5060699;28;964;-74
2021/03/21 10:44:13;;;;;;;;;;;;;;;21.51;24.79;97891.88;5060719;28;745;-74
2021/03/21 10:46:46;;;;;;;;;;;;;;;21.54;24.79;97886.09;5060979;28;651;-74
2021/03/21 10:49:12;;;;;;;;;;;;;;;21.51;24.83;97886.22;5060776;28;1967;-74
2021/03/21 10:52:09;;;;;;;;;;;;;;;22.24;23.94;97887.31;5043159;28;802;-74
2021/03/21 10:54:35;;;;;;;;;;;;;;;22.48;23.59;97884.13;5000123;28;1226;-74
2021/03/21 10:57:19;;;;;;;;;;;;;;;22.50;23.47;97871.13;5043564;28;920;-74
2021/03/21 11:00:04;;;;;;;;;;;;;;;21.90;24.24;97861.63;5060434;28;618;-74
2021/03/21 11:02:29;;;;;;;;;;;;;;;21.65;24.72;97849.00;5060053;28;1174;-74
2021/03/21 11:04:59;;;;;;;;;;;;;;;21.57;24.91;97844.78;5059609;28;1189;-74
2021/03/21 11:07:24;;;;;;;;;;;;;;;22.01;24.49;97839.44;5042188;28;1667;-74
2021/03/21 11:09:56;;;;;;;;;;;;;;;22.39;23.86;97842.31;5058750;28;1902;-74
2021/03/21 11:12:43;;;;;;;;;;;;;;;22.53;23.58;97855.22;5042074;28;1169;-74
2021/03/21 11:15:18;;;;;;;;;;;;;;;22.04;23.93;97844.19;5057031;28;1158;-74
2021/03/21 11:17:44;;;;;;;;;;;;;;;21.75;24.41;97833.72;5059508;28;1329;-74
2021/03/21 11:20:20;;;;;;;;;;;;;;;21.97;24.37;97824.59;5059205;28;1202;-74
2021/03/21 11:22:46;;;;;;;;;;;;;;;21.71;24.63;97833.06;5040653;28;1143;-74
2021/03/21 11:25:14;;;;;;;;;;;;;;;21.68;24.75;97833.94;5058737;28;1126;-74
2021/03/21 11:27:40;;;;;;;;;;;;;;;21.59;24.70;97825.31;5058649;28;1981;-74
2021/03/21 11:30:09;;;;;;;;;;;;;;;21.65;24.83;97815.00;5059100;28;1119;-75
2021/03/21 11:32:35;;;;;;;;;;;;;;;21.92;24.56;97813.84;5059369;28;1122;-74
2021/03/21 11:35:13;;;;;;;;;;;;;;;22.31;23.83;97802.06;5059045;28;1251;-74
2021/03/21 11:37:42;;;;;;;;;;;;;;;22.48;23.53;97799.88;5059682;28;658;-74
2021/03/21 11:40:12;;;;;;;;;;;;;;;22.41;23.84;97800.13;5059971;28;614;-74
2021/03/21 11:42:38;;;;;;;;;;;;;;;22.00;24.02;97809.50;5042415;28;921;-73
2021/03/21 11:45:22;;;;;;;;;;;;;;;21.88;24.29;97807.47;5059894;28;822;-73
2021/03/21 11:47:49;;;;;;;;;;;;;;;21.65;24.79;97808.56;5059968;28;1906;-74
2021/03/21 11:50:26;;;;;;;;;;;;;;;21.95;24.49;97812.91;5042896;28;618;-74
2021/03/21 11:52:52;;;;;;;;;;;;;;;21.19;25.29;97811.47;5060110;28;670;-74
2021/03/21 11:55:18;;;;;;;;;;;;;;;21.89;24.51;97803.41;5042645;28;626;-74
2021/03/21 11:58:01;;;;;;;;;;;;;;;22.31;23.79;97801.25;5042334;28;893;-73
2021/03/21 12:00:27;;;;;;;;;;;;;;;22.35;24.05;97797.06;5042258;28;901;-73
2021/03/21 12:02:56;;;;;;;;;;;;;;;22.43;23.72;97791.16;5041864;28;1071;-74
2021/03/21 12:05:22;;;;;;;;;;;;;;;22.06;24.06;97791.50;5058744;28;1214;-74
2021/03/21 12:07:48;;;;;;;;;;;;;;;21.38;25.03;97798.41;5058599;28;1984;-72
2021/03/21 12:10:27;;;;;;;;;;;;;;;21.94;24.47;97788.66;5038667;28;1171;-73
2021/03/21 12:12:52;;;;;;;;;;;;;;;21.83;24.46;97789.78;5058368;28;1277;-74
2021/03/21 12:15:24;;;;;;;;;;;;;;;22.29;24.11;97787.56;5041073;28;1262;-74
2021/03/21 12:18:09;;;;;;;;;;;;;;;22.45;23.76;97788.66;5058676;28;1166;-74
2021/03/21 12:20:55;;;;;;;;;;;;;;;22.50;23.30;97779.59;5037364;28;1240;-74
2021/03/21 12:23:40;;;;;;;;;;;;;;;21.44;24.77;97776.81;5039860;28;1150;-75
2021/03/21 12:26:06;;;;;;;;;;;;;;;21.73;24.63;97773.91;5057702;28;1134;-74
2021/03/21 12:28:33;;;;;;;;;;;;;;;21.75;24.63;97771.41;5058036;28;1968;-74
2021/03/21 12:30:59;;;;;;;;;;;;;;;22.15;24.27;97770.22;5023277;28;1194;-74
2021/03/21 12:33:25;;;;;;;;;;;;;;;22.45;23.67;97766.00;5041219;28;1173;-74
2021/03/21 12:36:02;;;;;;;;;;;;;;;22.58;23.33;97763.91;5055707;28;1012;-75
2021/03/21 12:38:31;;;;;;;;;;;;;;;22.06;24.32;97751.03;5058725;28;1177;-74
2021/03/21 12:40:57;;;;;;;;;;;;;;;21.99;24.23;97737.09;5056283;28;1138;-74
2021/03/21 12:43:22;;;;;;;;;;;;;;;21.70;24.49;97746.50;5040446;28;1162;-74
2021/03/21 12:46:07;;;;;;;;;;;;;;;21.62;24.90;97745.16;5057951;28;1158;-74
2021/03/21 12:48:43;;;;;;;;;;;;;;;22.01;24.55;97737.44;5060361;28;1977;-75
2021/03/21 12:51:11;;;;;;;;;;;;;;;22.47;23.76;97746.47;5062499;28;1150;-74
2021/03/21 12:53:36;;;;;;;;;;;;;;;22.58;23.75;97746.91;5044386;28;1177;-75
2021/03/21 12:56:03;;;;;;;;;;;;;;;22.15;24.10;97731.34;5062757;28;1181;-75
2021/03/21 12:58:31;;;;;;;;;;;;;;;22.14;23.87;97734.63;5044449;28;1209;-74
2021/03/21 13:00:56;;;;;;;;;;;;;;;20.10;24.61;97459.97;5061677;28;1130;-74
2021/03/21 13:03:29;;;;;;;;;;;;;;;21.90;24.44;97720.00;5062007;28;1170;-74
2021/03/21 13:05:55;;;;;;;;;;;;;;;22.18;24.23;97727.59;5023125;28;1146;-74
2021/03/21 13:08:21;;;;;;;;;;;;;;;22.48;23.80;97731.03;5040976;28;1993;-75
2021/03/21 13:10:47;;;;;;;;;;;;;;;22.55;23.86;97736.47;5041743;28;1150;-75
2021/03/21 13:13:13;;;;;;;;;;;;;;;22.07;24.17;97715.78;5041620;28;1513;-74
2021/03/21 13:15:38;;;;;;;;;;;;;;;21.85;24.28;97724.97;5043084;28;911;-74
2021/03/21 13:18:04;;;;;;;;;;;;;;;21.94;24.39;97718.63;5042722;28;914;-75
2021/03/21 13:20:29;;;;;;;;;;;;;;;21.75;24.71;97719.66;5042136;28;650;-74
2021/03/21 13:22:55;;;;;;;;;;;;;;;22.07;24.40;97725.09;5042605;28;670;-74
2021/03/21 13:25:26;;;;;;;;;;;;;;;22.36;23.96;97724.16;5042711;28;773;-75
2021/03/21 13:27:55;;;;;;;;;;;;;;;22.52;23.61;97709.81;5042557;28;1991;-75